sensor_id;sensor_type;location;lat;lon;timestamp;pressure;altitude;pressure_sealevel;temperature
15607;BMP180;7865;50.918;4.510;2023-09-19T00:03:49;100439.00;;;14.50
15607;BMP180;7865;50.918;4.510;2023-09-19T00:08:52;100438.00;;;14.50
15607;BMP180;7865;50.918;4.510;2023-09-19T00:13:55;100456.00;;;14.50
15607;BMP180;7865;50.918;4.510;2023-09-19T00:18:57;100454.00;;;14.50
15607;BMP180;7865;50.918;4.510;2023-09-19T00:24:00;100464.00;;;14.50
15607;BMP180;7865;50.918;4.510;2023-09-19T00:29:02;100465.00;;;14.50
15607;BMP180;7865;50.918;4.510;2023-09-19T00:34:05;100463.00;;;14.40
15607;BMP180;7865;50.918;4.510;2023-09-19T00:39:08;100469.00;;;14.40
15607;BMP180;7865;50.918;4.510;2023-09-19T00:44:10;100474.00;;;14.40
15607;BMP180;7865;50.918;4.510;2023-09-19T00:49:13;100476.00;;;14.30
15607;BMP180;7865;50.918;4.510;2023-09-19T00:54:18;100474.00;;;14.30
15607;BMP180;7865;50.918;4.510;2023-09-19T00:59:20;100480.00;;;14.30
15607;BMP180;7865;50.918;4.510;2023-09-19T01:04:24;100488.00;;;14.30
15607;BMP180;7865;50.918;4.510;2023-09-19T01:09:27;100490.00;;;14.20
15607;BMP180;7865;50.918;4.510;2023-09-19T01:14:42;100483.00;;;14.20
15607;BMP180;7865;50.918;4.510;2023-09-19T01:30:44;100489.00;;;14.20
15607;BMP180;7865;50.918;4.510;2023-09-19T01:35:46;100499.00;;;14.20
15607;BMP180;7865;50.918;4.510;2023-09-19T01:40:57;100502.00;;;14.10
15607;BMP180;7865;50.918;4.510;2023-09-19T01:46:17;100494.00;;;14.10
15607;BMP180;7865;50.918;4.510;2023-09-19T01:51:42;100496.00;;;14.00
15607;BMP180;7865;50.918;4.510;2023-09-19T01:56:53;100499.00;;;14.00
15607;BMP180;7865;50.918;4.510;2023-09-19T02:02:01;100510.00;;;14.00
15607;BMP180;7865;50.918;4.510;2023-09-19T02:07:04;100496.00;;;14.00
15607;BMP180;7865;50.918;4.510;2023-09-19T02:12:09;100503.00;;;14.10
15607;BMP180;7865;50.918;4.510;2023-09-19T02:17:12;100497.00;;;14.10
15607;BMP180;7865;50.918;4.510;2023-09-19T02:22:14;100495.00;;;14.20
15607;BMP180;7865;50.918;4.510;2023-09-19T02:27:18;100499.00;;;14.30
15607;BMP180;7865;50.918;4.510;2023-09-19T02:32:20;100504.00;;;14.30
15607;BMP180;7865;50.918;4.510;2023-09-19T02:37:23;100508.00;;;14.40
15607;BMP180;7865;50.918;4.510;2023-09-19T02:42:25;100510.00;;;14.50
15607;BMP180;7865;50.918;4.510;2023-09-19T02:47:28;100519.00;;;14.60
15607;BMP180;7865;50.918;4.510;2023-09-19T02:52:30;100523.00;;;14.60
15607;BMP180;7865;50.918;4.510;2023-09-19T02:57:33;100498.00;;;14.60
15607;BMP180;7865;50.918;4.510;2023-09-19T03:02:36;100490.00;;;14.60
15607;BMP180;7865;50.918;4.510;2023-09-19T03:07:39;100506.00;;;14.60
15607;BMP180;7865;50.918;4.510;2023-09-19T03:12:42;100521.00;;;14.50
15607;BMP180;7865;50.918;4.510;2023-09-19T03:17:45;100521.00;;;14.40
15607;BMP180;7865;50.918;4.510;2023-09-19T03:22:50;100525.00;;;14.30
15607;BMP180;7865;50.918;4.510;2023-09-19T03:27:52;100522.00;;;14.30
15607;BMP180;7865;50.918;4.510;2023-09-19T03:32:56;100510.00;;;14.40
15607;BMP180;7865;50.918;4.510;2023-09-19T03:37:59;100512.00;;;14.50
15607;BMP180;7865;50.918;4.510;2023-09-19T03:43:02;100519.00;;;14.50
15607;BMP180;7865;50.918;4.510;2023-09-19T03:48:10;100518.00;;;14.50
15607;BMP180;7865;50.918;4.510;2023-09-19T03:53:13;100527.00;;;14.40
15607;BMP180;7865;50.918;4.510;2023-09-19T03:58:15;100504.00;;;14.30
15607;BMP180;7865;50.918;4.510;2023-09-19T04:03:17;100510.00;;;14.20
15607;BMP180;7865;50.918;4.510;2023-09-19T04:08:23;100520.00;;;14.10
15607;BMP180;7865;50.918;4.510;2023-09-19T04:13:26;100522.00;;;14.10
15607;BMP180;7865;50.918;4.510;2023-09-19T04:18:29;100517.00;;;14.00
15607;BMP180;7865;50.918;4.510;2023-09-19T04:23:33;100525.00;;;14.00
15607;BMP180;7865;50.918;4.510;2023-09-19T04:28:35;100516.00;;;14.00
15607;BMP180;7865;50.918;4.510;2023-09-19T04:33:40;100526.00;;;13.90
15607;BMP180;7865;50.918;4.510;2023-09-19T04:38:43;100521.00;;;13.90
15607;BMP180;7865;50.918;4.510;2023-09-19T04:43:47;100537.00;;;13.90
15607;BMP180;7865;50.918;4.510;2023-09-19T04:48:51;100540.00;;;13.90
15607;BMP180;7865;50.918;4.510;2023-09-19T04:53:53;100543.00;;;13.80
15607;BMP180;7865;50.918;4.510;2023-09-19T04:58:55;100544.00;;;13.80
15607;BMP180;7865;50.918;4.510;2023-09-19T05:03:57;100547.00;;;13.70
15607;BMP180;7865;50.918;4.510;2023-09-19T05:08:59;100558.00;;;13.70
15607;BMP180;7865;50.918;4.510;2023-09-19T05:14:02;100562.00;;;13.80
15607;BMP180;7865;50.918;4.510;2023-09-19T05:19:05;100560.00;;;13.80
15607;BMP180;7865;50.918;4.510;2023-09-19T05:24:07;100569.00;;;13.70
15607;BMP180;7865;50.918;4.510;2023-09-19T05:29:12;100577.00;;;13.70
15607;BMP180;7865;50.918;4.510;2023-09-19T05:34:14;100570.00;;;13.80
15607;BMP180;7865;50.918;4.510;2023-09-19T05:39:16;100571.00;;;13.90
15607;BMP180;7865;50.918;4.510;2023-09-19T05:44:18;100558.00;;;13.90
15607;BMP180;7865;50.918;4.510;2023-09-19T05:49:21;100558.00;;;14.00
15607;BMP180;7865;50.918;4.510;2023-09-19T05:54:23;100571.00;;;14.10
15607;BMP180;7865;50.918;4.510;2023-09-19T05:59:25;100576.00;;;14.20
15607;BMP180;7865;50.918;4.510;2023-09-19T06:04:27;100582.00;;;14.30
15607;BMP180;7865;50.918;4.510;2023-09-19T06:09:32;100586.00;;;14.50
15607;BMP180;7865;50.918;4.510;2023-09-19T06:14:35;100581.00;;;14.60
15607;BMP180;7865;50.918;4.510;2023-09-19T06:19:37;100571.00;;;14.70
15607;BMP180;7865;50.918;4.510;2023-09-19T06:24:40;100590.00;;;14.90
15607;BMP180;7865;50.918;4.510;2023-09-19T06:29:42;100592.00;;;15.10
15607;BMP180;7865;50.918;4.510;2023-09-19T06:34:44;100599.00;;;15.30
15607;BMP180;7865;50.918;4.510;2023-09-19T06:39:47;100595.00;;;15.40
15607;BMP180;7865;50.918;4.510;2023-09-19T06:44:51;100602.00;;;15.60
15607;BMP180;7865;50.918;4.510;2023-09-19T06:49:53;100602.00;;;15.80
15607;BMP180;7865;50.918;4.510;2023-09-19T06:54:55;100614.00;;;15.80
15607;BMP180;7865;50.918;4.510;2023-09-19T06:59:57;100611.00;;;15.90
15607;BMP180;7865;50.918;4.510;2023-09-19T07:04:59;100625.00;;;15.90
15607;BMP180;7865;50.918;4.510;2023-09-19T07:10:03;100614.00;;;16.00
15607;BMP180;7865;50.918;4.510;2023-09-19T07:15:07;100606.00;;;16.10
15607;BMP180;7865;50.918;4.510;2023-09-19T07:20:10;100611.00;;;16.30
15607;BMP180;7865;50.918;4.510;2023-09-19T07:25:12;100599.00;;;16.60
15607;BMP180;7865;50.918;4.510;2023-09-19T07:30:15;100618.00;;;16.90
15607;BMP180;7865;50.918;4.510;2023-09-19T07:35:18;100607.00;;;17.10
15607;BMP180;7865;50.918;4.510;2023-09-19T07:40:23;100617.00;;;17.20
15607;BMP180;7865;50.918;4.510;2023-09-19T07:45:31;100608.00;;;17.40
15607;BMP180;7865;50.918;4.510;2023-09-19T07:50:34;100607.00;;;17.40
15607;BMP180;7865;50.918;4.510;2023-09-19T07:55:39;100597.00;;;17.60
15607;BMP180;7865;50.918;4.510;2023-09-19T08:00:43;100614.00;;;17.80
15607;BMP180;7865;50.918;4.510;2023-09-19T08:05:45;100604.00;;;18.00
15607;BMP180;7865;50.918;4.510;2023-09-19T08:10:55;100614.00;;;18.10
15607;BMP180;7865;50.918;4.510;2023-09-19T08:15:58;100617.00;;;18.40
15607;BMP180;7865;50.918;4.510;2023-09-19T08:21:00;100607.00;;;18.90
15607;BMP180;7865;50.918;4.510;2023-09-19T08:26:05;100617.00;;;19.00
15607;BMP180;7865;50.918;4.510;2023-09-19T08:31:10;100604.00;;;19.10
15607;BMP180;7865;50.918;4.510;2023-09-19T08:36:16;100607.00;;;19.20
15607;BMP180;7865;50.918;4.510;2023-09-19T08:41:18;100598.00;;;19.40
15607;BMP180;7865;50.918;4.510;2023-09-19T08:46:24;100604.00;;;19.60
15607;BMP180;7865;50.918;4.510;2023-09-19T08:56:38;100607.00;;;20.40
15607;BMP180;7865;50.918;4.510;2023-09-19T09:01:41;100610.00;;;20.80
15607;BMP180;7865;50.918;4.510;2023-09-19T09:06:44;100593.00;;;21.10
15607;BMP180;7865;50.918;4.510;2023-09-19T09:11:48;100594.00;;;21.30
15607;BMP180;7865;50.918;4.510;2023-09-19T09:16:55;100600.00;;;21.50
15607;BMP180;7865;50.918;4.510;2023-09-19T09:22:11;100602.00;;;21.50
15607;BMP180;7865;50.918;4.510;2023-09-19T09:27:13;100596.00;;;21.70
15607;BMP180;7865;50.918;4.510;2023-09-19T09:32:29;100590.00;;;21.50
15607;BMP180;7865;50.918;4.510;2023-09-19T09:37:31;100582.00;;;21.30
15607;BMP180;7865;50.918;4.510;2023-09-19T09:42:36;100575.00;;;21.20
15607;BMP180;7865;50.918;4.510;2023-09-19T09:47:48;100578.00;;;21.10
15607;BMP180;7865;50.918;4.510;2023-09-19T09:52:59;100564.00;;;20.80
15607;BMP180;7865;50.918;4.510;2023-09-19T09:58:17;100586.00;;;20.40
15607;BMP180;7865;50.918;4.510;2023-09-19T10:03:32;100576.00;;;20.20
15607;BMP180;7865;50.918;4.510;2023-09-19T10:08:35;100580.00;;;20.10
15607;BMP180;7865;50.918;4.510;2023-09-19T10:13:38;100578.00;;;20.20
15607;BMP180;7865;50.918;4.510;2023-09-19T10:18:48;100573.00;;;20.70
15607;BMP180;7865;50.918;4.510;2023-09-19T10:23:54;100566.00;;;21.60
15607;BMP180;7865;50.918;4.510;2023-09-19T10:28:59;100560.00;;;22.10
15607;BMP180;7865;50.918;4.510;2023-09-19T10:34:03;100547.00;;;22.60
15607;BMP180;7865;50.918;4.510;2023-09-19T10:39:06;100552.00;;;22.90
15607;BMP180;7865;50.918;4.510;2023-09-19T10:44:10;100553.00;;;23.40
15607;BMP180;7865;50.918;4.510;2023-09-19T10:49:13;100557.00;;;23.50
15607;BMP180;7865;50.918;4.510;2023-09-19T10:54:17;100533.00;;;23.70
15607;BMP180;7865;50.918;4.510;2023-09-19T10:59:25;100550.00;;;23.90
15607;BMP180;7865;50.918;4.510;2023-09-19T11:04:34;100550.00;;;23.60
15607;BMP180;7865;50.918;4.510;2023-09-19T11:09:53;100548.00;;;24.20
15607;BMP180;7865;50.918;4.510;2023-09-19T11:14:56;100543.00;;;24.80
15607;BMP180;7865;50.918;4.510;2023-09-19T11:30:38;100529.00;;;25.40
15607;BMP180;7865;50.918;4.510;2023-09-19T11:51:53;100512.00;;;23.40
15607;BMP180;7865;50.918;4.510;2023-09-19T11:57:00;100515.00;;;23.20
15607;BMP180;7865;50.918;4.510;2023-09-19T12:02:05;100529.00;;;23.10
15607;BMP180;7865;50.918;4.510;2023-09-19T12:07:10;100536.00;;;22.50
15607;BMP180;7865;50.918;4.510;2023-09-19T12:12:22;100530.00;;;22.70
15607;BMP180;7865;50.918;4.510;2023-09-19T12:17:37;100534.00;;;22.50
15607;BMP180;7865;50.918;4.510;2023-09-19T12:22:46;100520.00;;;22.70
15607;BMP180;7865;50.918;4.510;2023-09-19T12:27:49;100516.00;;;23.10
15607;BMP180;7865;50.918;4.510;2023-09-19T12:32:55;100523.00;;;23.50
15607;BMP180;7865;50.918;4.510;2023-09-19T12:38:01;100524.00;;;23.20
15607;BMP180;7865;50.918;4.510;2023-09-19T12:43:06;100523.00;;;23.00
15607;BMP180;7865;50.918;4.510;2023-09-19T12:48:25;100506.00;;;22.90
15607;BMP180;7865;50.918;4.510;2023-09-19T12:53:40;100515.00;;;23.00
15607;BMP180;7865;50.918;4.510;2023-09-19T12:58:58;100508.00;;;22.70
15607;BMP180;7865;50.918;4.510;2023-09-19T13:04:19;100514.00;;;22.90
15607;BMP180;7865;50.918;4.510;2023-09-19T13:09:23;100519.00;;;22.60
15607;BMP180;7865;50.918;4.510;2023-09-19T13:14:37;100526.00;;;23.00
15607;BMP180;7865;50.918;4.510;2023-09-19T13:19:50;100521.00;;;22.80
15607;BMP180;7865;50.918;4.510;2023-09-19T13:24:56;100520.00;;;22.60
15607;BMP180;7865;50.918;4.510;2023-09-19T13:30:01;100523.00;;;22.40
15607;BMP180;7865;50.918;4.510;2023-09-19T13:35:04;100531.00;;;22.00
15607;BMP180;7865;50.918;4.510;2023-09-19T13:40:08;100515.00;;;22.40
15607;BMP180;7865;50.918;4.510;2023-09-19T13:45:11;100512.00;;;22.40
15607;BMP180;7865;50.918;4.510;2023-09-19T13:50:14;100498.00;;;22.60
15607;BMP180;7865;50.918;4.510;2023-09-19T13:55:17;100510.00;;;22.70
15607;BMP180;7865;50.918;4.510;2023-09-19T14:00:22;100504.00;;;23.20
15607;BMP180;7865;50.918;4.510;2023-09-19T14:05:25;100503.00;;;23.40
15607;BMP180;7865;50.918;4.510;2023-09-19T14:10:29;100502.00;;;23.50
15607;BMP180;7865;50.918;4.510;2023-09-19T14:15:36;100508.00;;;22.70
15607;BMP180;7865;50.918;4.510;2023-09-19T14:20:39;100492.00;;;22.20
15607;BMP180;7865;50.918;4.510;2023-09-19T14:25:42;100483.00;;;22.40
15607;BMP180;7865;50.918;4.510;2023-09-19T14:30:44;100479.00;;;22.70
15607;BMP180;7865;50.918;4.510;2023-09-19T14:35:47;100489.00;;;22.40
15607;BMP180;7865;50.918;4.510;2023-09-19T14:40:59;100493.00;;;22.50
15607;BMP180;7865;50.918;4.510;2023-09-19T14:46:05;100484.00;;;22.70
15607;BMP180;7865;50.918;4.510;2023-09-19T14:51:09;100507.00;;;22.40
15607;BMP180;7865;50.918;4.510;2023-09-19T14:56:13;100487.00;;;22.30
15607;BMP180;7865;50.918;4.510;2023-09-19T15:01:20;100489.00;;;21.90
15607;BMP180;7865;50.918;4.510;2023-09-19T15:06:22;100498.00;;;21.20
15607;BMP180;7865;50.918;4.510;2023-09-19T15:11:24;100491.00;;;20.60
15607;BMP180;7865;50.918;4.510;2023-09-19T15:16:26;100490.00;;;20.40
15607;BMP180;7865;50.918;4.510;2023-09-19T15:21:30;100506.00;;;20.60
15607;BMP180;7865;50.918;4.510;2023-09-19T15:26:32;100501.00;;;20.90
15607;BMP180;7865;50.918;4.510;2023-09-19T15:31:35;100495.00;;;20.90
15607;BMP180;7865;50.918;4.510;2023-09-19T15:36:40;100498.00;;;20.90
15607;BMP180;7865;50.918;4.510;2023-09-19T15:41:45;100493.00;;;20.50
15607;BMP180;7865;50.918;4.510;2023-09-19T15:46:50;100484.00;;;20.10
15607;BMP180;7865;50.918;4.510;2023-09-19T15:51:53;100500.00;;;19.90
15607;BMP180;7865;50.918;4.510;2023-09-19T15:56:55;100496.00;;;20.00
15607;BMP180;7865;50.918;4.510;2023-09-19T16:01:57;100499.00;;;19.90
15607;BMP180;7865;50.918;4.510;2023-09-19T16:07:00;100491.00;;;19.80
15607;BMP180;7865;50.918;4.510;2023-09-19T16:12:04;100502.00;;;19.80
15607;BMP180;7865;50.918;4.510;2023-09-19T16:17:06;100491.00;;;19.70
15607;BMP180;7865;50.918;4.510;2023-09-19T16:22:12;100503.00;;;19.80
15607;BMP180;7865;50.918;4.510;2023-09-19T16:27:15;100504.00;;;19.80
15607;BMP180;7865;50.918;4.510;2023-09-19T16:32:22;100494.00;;;19.80
15607;BMP180;7865;50.918;4.510;2023-09-19T16:37:24;100482.00;;;19.60
15607;BMP180;7865;50.918;4.510;2023-09-19T16:42:27;100497.00;;;19.40
15607;BMP180;7865;50.918;4.510;2023-09-19T16:47:33;100499.00;;;19.20
15607;BMP180;7865;50.918;4.510;2023-09-19T16:52:35;100500.00;;;19.20
15607;BMP180;7865;50.918;4.510;2023-09-19T16:57:37;100498.00;;;19.10
15607;BMP180;7865;50.918;4.510;2023-09-19T17:02:40;100496.00;;;19.20
15607;BMP180;7865;50.918;4.510;2023-09-19T17:07:42;100503.00;;;19.20
15607;BMP180;7865;50.918;4.510;2023-09-19T17:12:44;100499.00;;;19.20
15607;BMP180;7865;50.918;4.510;2023-09-19T17:17:46;100505.00;;;19.10
15607;BMP180;7865;50.918;4.510;2023-09-19T17:22:48;100511.00;;;19.00
15607;BMP180;7865;50.918;4.510;2023-09-19T17:27:52;100514.00;;;18.80
15607;BMP180;7865;50.918;4.510;2023-09-19T17:32:54;100503.00;;;18.70
15607;BMP180;7865;50.918;4.510;2023-09-19T17:37:57;100507.00;;;18.60
15607;BMP180;7865;50.918;4.510;2023-09-19T17:42:59;100507.00;;;18.40
15607;BMP180;7865;50.918;4.510;2023-09-19T17:48:04;100510.00;;;18.40
15607;BMP180;7865;50.918;4.510;2023-09-19T17:53:08;100518.00;;;18.30
15607;BMP180;7865;50.918;4.510;2023-09-19T17:58:11;100516.00;;;18.30
15607;BMP180;7865;50.918;4.510;2023-09-19T18:03:14;100510.00;;;18.20
15607;BMP180;7865;50.918;4.510;2023-09-19T18:08:16;100495.00;;;18.10
15607;BMP180;7865;50.918;4.510;2023-09-19T18:13:18;100489.00;;;18.10
15607;BMP180;7865;50.918;4.510;2023-09-19T18:18:24;100484.00;;;18.00
15607;BMP180;7865;50.918;4.510;2023-09-19T18:23:27;100489.00;;;17.90
15607;BMP180;7865;50.918;4.510;2023-09-19T18:28:30;100476.00;;;17.90
15607;BMP180;7865;50.918;4.510;2023-09-19T18:33:32;100481.00;;;17.90
15607;BMP180;7865;50.918;4.510;2023-09-19T18:38:42;100485.00;;;17.90
15607;BMP180;7865;50.918;4.510;2023-09-19T18:43:45;100494.00;;;17.90
15607;BMP180;7865;50.918;4.510;2023-09-19T18:48:51;100502.00;;;17.90
15607;BMP180;7865;50.918;4.510;2023-09-19T18:53:54;100503.00;;;17.90
15607;BMP180;7865;50.918;4.510;2023-09-19T18:59:13;100490.00;;;17.90
15607;BMP180;7865;50.918;4.510;2023-09-19T19:04:16;100490.00;;;17.90
15607;BMP180;7865;50.918;4.510;2023-09-19T19:09:20;100486.00;;;17.80
15607;BMP180;7865;50.918;4.510;2023-09-19T19:14:22;100490.00;;;17.80
15607;BMP180;7865;50.918;4.510;2023-09-19T19:19:25;100481.00;;;17.80
15607;BMP180;7865;50.918;4.510;2023-09-19T19:24:29;100491.00;;;17.80
15607;BMP180;7865;50.918;4.510;2023-09-19T19:29:31;100484.00;;;17.90
15607;BMP180;7865;50.918;4.510;2023-09-19T19:34:33;100489.00;;;17.90
15607;BMP180;7865;50.918;4.510;2023-09-19T19:39:35;100502.00;;;18.00
15607;BMP180;7865;50.918;4.510;2023-09-19T19:44:37;100487.00;;;18.00
15607;BMP180;7865;50.918;4.510;2023-09-19T19:49:39;100489.00;;;18.00
15607;BMP180;7865;50.918;4.510;2023-09-19T19:54:41;100498.00;;;18.10
15607;BMP180;7865;50.918;4.510;2023-09-19T19:59:43;100472.00;;;18.10
15607;BMP180;7865;50.918;4.510;2023-09-19T20:04:45;100495.00;;;18.20
15607;BMP180;7865;50.918;4.510;2023-09-19T20:09:47;100488.00;;;18.20
15607;BMP180;7865;50.918;4.510;2023-09-19T20:14:49;100493.00;;;18.30
15607;BMP180;7865;50.918;4.510;2023-09-19T20:19:51;100489.00;;;18.30
15607;BMP180;7865;50.918;4.510;2023-09-19T20:24:54;100495.00;;;18.30
15607;BMP180;7865;50.918;4.510;2023-09-19T20:29:56;100485.00;;;18.30
15607;BMP180;7865;50.918;4.510;2023-09-19T20:34:58;100480.00;;;18.30
15607;BMP180;7865;50.918;4.510;2023-09-19T20:45:42;100492.00;;;18.30
15607;BMP180;7865;50.918;4.510;2023-09-19T20:50:44;100484.00;;;18.40
15607;BMP180;7865;50.918;4.510;2023-09-19T20:55:46;100476.00;;;18.40
15607;BMP180;7865;50.918;4.510;2023-09-19T21:00:48;100480.00;;;18.40
15607;BMP180;7865;50.918;4.510;2023-09-19T21:06:11;100476.00;;;18.40
15607;BMP180;7865;50.918;4.510;2023-09-19T21:11:19;100465.00;;;18.40
15607;BMP180;7865;50.918;4.510;2023-09-19T21:16:22;100462.00;;;18.40
15607;BMP180;7865;50.918;4.510;2023-09-19T21:21:24;100462.00;;;18.50
15607;BMP180;7865;50.918;4.510;2023-09-19T21:26:26;100452.00;;;18.50
15607;BMP180;7865;50.918;4.510;2023-09-19T21:31:29;100450.00;;;18.60
15607;BMP180;7865;50.918;4.510;2023-09-19T21:36:31;100455.00;;;18.50
15607;BMP180;7865;50.918;4.510;2023-09-19T21:41:35;100449.00;;;18.60
15607;BMP180;7865;50.918;4.510;2023-09-19T21:46:38;100448.00;;;18.60
15607;BMP180;7865;50.918;4.510;2023-09-19T21:51:41;100453.00;;;18.50
15607;BMP180;7865;50.918;4.510;2023-09-19T21:56:43;100450.00;;;18.40
15607;BMP180;7865;50.918;4.510;2023-09-19T22:01:47;100456.00;;;18.40
15607;BMP180;7865;50.918;4.510;2023-09-19T22:06:49;100462.00;;;18.30
15607;BMP180;7865;50.918;4.510;2023-09-19T22:11:51;100455.00;;;18.20
15607;BMP180;7865;50.918;4.510;2023-09-19T22:16:56;100447.00;;;18.20
15607;BMP180;7865;50.918;4.510;2023-09-19T22:22:02;100464.00;;;18.20
15607;BMP180;7865;50.918;4.510;2023-09-19T22:27:04;100462.00;;;18.20
15607;BMP180;7865;50.918;4.510;2023-09-19T22:32:06;100464.00;;;18.10
15607;BMP180;7865;50.918;4.510;2023-09-19T22:37:13;100458.00;;;18.10
15607;BMP180;7865;50.918;4.510;2023-09-19T22:42:15;100461.00;;;18.10
15607;BMP180;7865;50.918;4.510;2023-09-19T22:47:18;100456.00;;;18.10
15607;BMP180;7865;50.918;4.510;2023-09-19T22:52:20;100459.00;;;18.10
15607;BMP180;7865;50.918;4.510;2023-09-19T22:57:23;100449.00;;;18.10
15607;BMP180;7865;50.918;4.510;2023-09-19T23:02:25;100438.00;;;18.10
15607;BMP180;7865;50.918;4.510;2023-09-19T23:07:31;100444.00;;;18.10
15607;BMP180;7865;50.918;4.510;2023-09-19T23:12:33;100445.00;;;18.10
15607;BMP180;7865;50.918;4.510;2023-09-19T23:17:35;100443.00;;;18.10
15607;BMP180;7865;50.918;4.510;2023-09-19T23:22:38;100446.00;;;18.10
15607;BMP180;7865;50.918;4.510;2023-09-19T23:27:42;100446.00;;;18.10
15607;BMP180;7865;50.918;4.510;2023-09-19T23:32:49;100447.00;;;18.20
15607;BMP180;7865;50.918;4.510;2023-09-19T23:37:51;100446.00;;;18.20
15607;BMP180;7865;50.918;4.510;2023-09-19T23:42:55;100453.00;;;18.10
15607;BMP180;7865;50.918;4.510;2023-09-19T23:47:57;100458.00;;;18.00
15607;BMP180;7865;50.918;4.510;2023-09-19T23:53:05;100457.00;;;17.90
15607;BMP180;7865;50.918;4.510;2023-09-19T23:58:08;100462.00;;;18.00
